createdAt,value
2022-08-28T00:00:13.843Z,3.44
2022-08-28T00:01:15.244Z,2.88
2022-08-28T00:02:13.163Z,4.16
2022-08-28T00:03:13.135Z,4.96
2022-08-28T00:04:13.544Z,2.96
2022-08-28T00:05:13.398Z,4.25
2022-08-28T00:06:13.601Z,8.40
2022-08-28T00:07:13.781Z,7.80
2022-08-28T00:08:13.807Z,7.24
2022-08-28T00:09:12.870Z,7.72
2022-08-28T00:10:13.830Z,4.80
2022-08-28T00:11:15.097Z,4.96
2022-08-28T00:12:13.206Z,6.44
2022-08-28T00:13:13.252Z,14.12
2022-08-28T00:14:13.177Z,7.36
2022-08-28T00:15:13.358Z,9.68
2022-08-28T00:16:13.323Z,7.68
2022-08-28T00:17:13.227Z,6.56
2022-08-28T00:18:13.354Z,5.84
2022-08-28T00:19:13.517Z,12.64
2022-08-28T00:20:13.386Z,9.64
2022-08-28T00:21:13.269Z,12.00
2022-08-28T00:22:13.120Z,4.28
2022-08-28T00:23:14.031Z,6.48
2022-08-28T00:24:13.264Z,2.32
2022-08-28T00:25:13.188Z,15.64
2022-08-28T00:26:13.502Z,9.08
2022-08-28T00:27:13.785Z,7.72
2022-08-28T00:28:23.705Z,17.72
2022-08-28T00:29:13.420Z,10.32
2022-08-28T00:30:13.315Z,16.96
2022-08-28T00:31:13.379Z,9.48
2022-08-28T00:32:13.601Z,7.20
2022-08-28T00:33:13.499Z,12.64
2022-08-28T00:34:13.547Z,8.72
2022-08-28T00:35:13.700Z,7.76
2022-08-28T00:36:13.621Z,10.32
2022-08-28T00:37:13.705Z,7.96
2022-08-28T00:38:14.262Z,15.16
2022-08-28T00:39:13.501Z,12.08
2022-08-28T00:40:13.423Z,5.08
2022-08-28T00:41:14.141Z,10.48
2022-08-28T00:42:13.113Z,7.92
2022-08-28T00:43:13.034Z,7.16
2022-08-28T00:44:13.069Z,11.24
2022-08-28T00:45:13.005Z,6.08
2022-08-28T00:46:12.904Z,11.80
2022-08-28T00:47:13.014Z,11.24
2022-08-28T00:48:13.067Z,8.64
2022-08-28T00:49:13.453Z,7.96
2022-08-28T00:50:13.378Z,6.40
2022-08-28T00:51:13.288Z,6.16
2022-08-28T00:52:13.631Z,1.84
2022-08-28T00:53:18.659Z,1.60
2022-08-28T00:54:14.195Z,5.04
2022-08-28T00:55:13.012Z,4.48
2022-08-28T00:56:13.441Z,5.12
2022-08-28T00:57:13.738Z,0.96
2022-08-28T00:58:14.042Z,2.72
2022-08-28T00:59:13.167Z,0.20
2022-08-28T01:00:13.627Z,0.32
2022-08-28T01:01:14.022Z,3.48
2022-08-28T01:02:13.101Z,5.84
2022-08-28T01:03:13.562Z,4.68
2022-08-28T01:04:13.580Z,3.40
2022-08-28T01:05:13.621Z,4.84
2022-08-28T01:06:13.742Z,2.20
2022-08-28T01:07:13.683Z,1.80
2022-08-28T01:08:14.210Z,0.96
2022-08-28T01:09:13.249Z,1.24
2022-08-28T01:10:13.120Z,0.96
2022-08-28T01:11:13.129Z,2.44
2022-08-28T01:12:13.302Z,2.48
2022-08-28T01:13:13.211Z,3.80
2022-08-28T01:14:13.131Z,1.72
2022-08-28T01:15:13.975Z,2.76
2022-08-28T01:16:13.692Z,2.20
2022-08-28T01:17:13.667Z,3.00
2022-08-28T01:18:13.639Z,3.40
2022-08-28T01:19:13.697Z,3.80
2022-08-28T01:20:18.704Z,3.16
2022-08-28T01:21:20.114Z,2.20
2022-08-28T01:22:13.534Z,2.72
2022-08-28T01:23:13.887Z,2.92
2022-08-28T01:24:13.129Z,2.96
2022-08-28T01:25:13.987Z,2.20
2022-08-28T01:26:12.864Z,2.44
2022-08-28T01:27:13.776Z,3.16
2022-08-28T01:28:13.857Z,1.12
2022-08-28T01:29:13.216Z,0.92
2022-08-28T01:30:13.080Z,2.80
2022-08-28T01:31:13.343Z,1.28
2022-08-28T01:32:13.658Z,0.96
2022-08-28T01:33:13.698Z,1.28
2022-08-28T01:34:13.928Z,3.40
2022-08-28T01:35:12.743Z,4.96
2022-08-28T01:36:13.792Z,4.24
2022-08-28T01:37:14.280Z,3.08
2022-08-28T01:38:14.207Z,3.76
2022-08-28T01:39:13.587Z,1.68
2022-08-28T01:40:13.440Z,3.92
2022-08-28T01:41:13.384Z,1.56
2022-08-28T01:42:13.420Z,1.12
2022-08-28T01:43:13.587Z,2.56
2022-08-28T01:44:13.728Z,2.16
2022-08-28T01:45:13.004Z,1.12
2022-08-28T01:46:13.123Z,1.52
2022-08-28T01:47:13.158Z,2.36
2022-08-28T01:48:13.272Z,1.92
2022-08-28T01:49:13.274Z,2.88
2022-08-28T01:50:13.421Z,3.52
2022-08-28T01:51:13.562Z,1.96
2022-08-28T01:52:13.425Z,3.80
2022-08-28T01:53:13.209Z,1.72
2022-08-28T01:54:13.108Z,2.16
2022-08-28T01:55:13.130Z,2.36
2022-08-28T01:56:13.290Z,2.28
2022-08-28T01:57:13.320Z,2.12
2022-08-28T01:58:13.994Z,1.96
2022-08-28T01:59:14.532Z,5.12
2022-08-28T02:00:13.519Z,3.04
2022-08-28T02:01:13.711Z,3.28
2022-08-28T02:02:14.021Z,4.56
2022-08-28T02:03:12.927Z,4.04
2022-08-28T02:04:12.987Z,2.60
2022-08-28T02:05:13.138Z,1.80
2022-08-28T02:06:12.998Z,3.20
2022-08-28T02:07:13.262Z,3.32
2022-08-28T02:08:13.322Z,3.52
2022-08-28T02:09:14.237Z,5.80
2022-08-28T02:10:12.769Z,4.12
2022-08-28T02:11:13.875Z,7.96
2022-08-28T02:12:14.110Z,11.84
2022-08-28T02:13:13.158Z,6.80
2022-08-28T02:14:13.079Z,3.88
2022-08-28T02:15:13.442Z,2.92
2022-08-28T02:16:13.448Z,2.80
2022-08-28T02:17:13.722Z,3.16
2022-08-28T02:18:14.047Z,3.64
2022-08-28T02:19:13.364Z,3.80
2022-08-28T02:20:13.241Z,4.52
2022-08-28T02:21:13.512Z,4.28
2022-08-28T02:22:13.588Z,4.68
2022-08-28T02:23:13.914Z,3.16
2022-08-28T02:24:13.045Z,3.28
2022-08-28T02:25:12.921Z,1.84
2022-08-28T02:26:12.904Z,2.36
2022-08-28T02:27:12.960Z,3.80
2022-08-28T02:28:13.440Z,5.68
2022-08-28T02:29:13.434Z,4.20
2022-08-28T02:30:13.295Z,7.04
2022-08-28T02:31:13.241Z,5.56
2022-08-28T02:32:13.144Z,3.60
2022-08-28T02:33:13.079Z,5.36
2022-08-28T02:34:12.918Z,5.60
2022-08-28T02:35:12.689Z,1.52
2022-08-28T02:36:13.572Z,0.76
2022-08-28T02:37:13.656Z,2.88
2022-08-28T02:38:13.719Z,0.60
2022-08-28T02:39:13.685Z,2.52
2022-08-28T02:40:13.600Z,5.48
2022-08-28T02:41:13.821Z,2.32
2022-08-28T02:42:14.059Z,0.48
2022-08-28T02:43:13.110Z,1.44
2022-08-28T02:44:12.957Z,1.44
2022-08-28T02:45:13.180Z,0.84
2022-08-28T02:46:13.095Z,3.52
2022-08-28T02:47:13.123Z,1.04
2022-08-28T02:48:17.397Z,3.88
2022-08-28T02:49:13.720Z,3.36
2022-08-28T02:50:13.742Z,4.16
2022-08-28T02:51:13.887Z,3.92
2022-08-28T02:52:13.752Z,1.68
2022-08-28T02:53:13.932Z,2.88
2022-08-28T02:54:13.081Z,2.56
2022-08-28T02:55:14.006Z,4.80
2022-08-28T02:56:13.156Z,4.68
2022-08-28T02:57:13.315Z,3.48
2022-08-28T02:58:13.873Z,4.04
2022-08-28T02:59:12.894Z,5.16
2022-08-28T03:00:12.747Z,5.20
2022-08-28T03:01:13.659Z,7.24
2022-08-28T03:02:13.824Z,9.04
2022-08-28T03:03:13.733Z,4.84
2022-08-28T03:04:13.842Z,8.64
2022-08-28T03:05:14.151Z,5.12
2022-08-28T03:06:13.097Z,5.36
2022-08-28T03:07:12.923Z,3.36
2022-08-28T03:08:13.190Z,5.48
2022-08-28T03:09:13.394Z,5.48
2022-08-28T03:10:13.374Z,6.00
2022-08-28T03:11:13.232Z,7.24
2022-08-28T03:12:13.269Z,4.44
2022-08-28T03:13:13.834Z,4.56
2022-08-28T03:14:13.282Z,4.32
2022-08-28T03:15:13.262Z,3.56
2022-08-28T03:16:13.628Z,6.40
2022-08-28T03:17:13.753Z,4.76
2022-08-28T03:18:15.549Z,3.28
2022-08-28T03:19:13.020Z,7.88
2022-08-28T03:20:13.188Z,6.64
2022-08-28T03:21:13.222Z,5.44
2022-08-28T03:22:13.130Z,3.20
2022-08-28T03:23:13.235Z,5.72
2022-08-28T03:24:15.634Z,6.20
2022-08-28T03:25:13.764Z,8.40
2022-08-28T03:26:13.638Z,12.68
2022-08-28T03:27:13.585Z,12.20
2022-08-28T03:28:13.642Z,7.04
2022-08-28T03:29:13.587Z,4.60
2022-08-28T03:30:13.658Z,6.48
2022-08-28T03:31:14.107Z,7.88
2022-08-28T03:32:12.962Z,6.36
2022-08-28T03:33:12.865Z,11.40
2022-08-28T03:34:14.136Z,5.92
2022-08-28T03:35:13.050Z,6.60
2022-08-28T03:36:13.437Z,4.68
2022-08-28T03:37:13.459Z,6.20
2022-08-28T03:38:13.483Z,5.16
2022-08-28T03:39:13.966Z,7.72
2022-08-28T03:40:12.976Z,6.40
2022-08-28T03:41:13.298Z,3.76
2022-08-28T03:42:13.358Z,6.12
2022-08-28T03:43:13.775Z,4.72
2022-08-28T03:44:13.694Z,5.44
2022-08-28T03:45:13.598Z,5.56
2022-08-28T03:46:13.495Z,6.20
2022-08-28T03:47:13.393Z,3.96
2022-08-28T03:48:13.602Z,6.52
2022-08-28T03:49:13.503Z,9.44
2022-08-28T03:50:13.417Z,6.00
2022-08-28T03:51:13.461Z,4.00
2022-08-28T03:52:13.833Z,5.12
2022-08-28T03:53:13.688Z,10.32
2022-08-28T03:54:14.063Z,9.72
2022-08-28T03:55:13.492Z,11.88
2022-08-28T03:56:13.731Z,9.60
2022-08-28T03:57:13.973Z,6.76
2022-08-28T03:58:18.777Z,5.12
2022-08-28T03:59:13.486Z,6.80
2022-08-28T04:00:13.582Z,7.04
2022-08-28T04:01:13.687Z,8.92
2022-08-28T04:02:13.693Z,5.48
2022-08-28T04:03:13.947Z,4.84
2022-08-28T04:04:12.929Z,6.80
2022-08-28T04:05:13.044Z,5.40
2022-08-28T04:06:13.486Z,12.52
2022-08-28T04:07:13.907Z,6.20
2022-08-28T04:08:12.885Z,7.32
2022-08-28T04:09:12.806Z,7.64
2022-08-28T04:10:13.896Z,7.52
2022-08-28T04:11:12.805Z,10.08
2022-08-28T04:12:13.666Z,11.96
2022-08-28T04:13:13.671Z,7.60
2022-08-28T04:14:14.177Z,5.08
2022-08-28T04:15:14.342Z,7.28
2022-08-28T04:16:13.403Z,5.28
2022-08-28T04:17:13.411Z,5.24
2022-08-28T04:18:13.573Z,4.24
2022-08-28T04:19:14.271Z,5.24
2022-08-28T04:20:18.200Z,4.16
2022-08-28T04:21:13.366Z,6.60
2022-08-28T04:22:13.502Z,6.40
2022-08-28T04:23:13.370Z,6.44
2022-08-28T04:24:13.306Z,5.76
2022-08-28T04:25:13.519Z,5.32
2022-08-28T04:26:13.665Z,3.76
2022-08-28T04:27:13.729Z,4.80
2022-08-28T04:28:13.971Z,5.84
2022-08-28T04:29:12.949Z,4.36
2022-08-28T04:30:13.004Z,4.52
2022-08-28T04:31:12.854Z,4.80
2022-08-28T04:32:14.031Z,4.40
2022-08-28T04:33:12.920Z,4.52
2022-08-28T04:34:13.043Z,7.76
2022-08-28T04:35:12.945Z,7.60
2022-08-28T04:36:13.116Z,6.56
2022-08-28T04:37:13.383Z,12.84
2022-08-28T04:38:13.498Z,13.80
2022-08-28T04:39:13.495Z,6.52
2022-08-28T04:40:13.451Z,10.88
2022-08-28T04:41:13.293Z,13.56
2022-08-28T04:42:13.323Z,10.12
2022-08-28T04:43:13.208Z,7.92
2022-08-28T04:44:13.214Z,3.76
2022-08-28T04:45:13.399Z,8.76
2022-08-28T04:46:13.711Z,9.56
2022-08-28T04:47:13.923Z,7.64
2022-08-28T04:48:13.796Z,9.56
2022-08-28T04:49:13.388Z,13.40
2022-08-28T04:50:13.579Z,10.04
2022-08-28T04:51:13.635Z,12.80
2022-08-28T04:52:15.389Z,6.20
2022-08-28T04:53:13.703Z,9.80
2022-08-28T04:54:13.644Z,5.64
2022-08-28T04:55:13.718Z,5.20
2022-08-28T04:56:13.556Z,6.48
2022-08-28T04:57:13.723Z,7.00
2022-08-28T04:58:13.753Z,9.12
2022-08-28T04:59:13.713Z,6.80
2022-08-28T05:00:13.822Z,7.20
2022-08-28T05:01:13.976Z,5.28
2022-08-28T05:02:13.179Z,5.84
2022-08-28T05:03:13.079Z,7.12
2022-08-28T05:04:12.981Z,8.48
2022-08-28T05:05:13.106Z,12.80
2022-08-28T05:06:13.131Z,11.28
2022-08-28T05:07:13.318Z,10.96
2022-08-28T05:08:13.436Z,14.08
2022-08-28T05:09:13.475Z,12.28
2022-08-28T05:10:13.763Z,10.44
2022-08-28T05:11:34.408Z,7.84
2022-08-28T05:12:13.877Z,8.92
2022-08-28T05:13:13.751Z,6.68
2022-08-28T05:14:16.126Z,9.84
2022-08-28T05:15:13.489Z,5.04
2022-08-28T05:16:13.474Z,5.80
2022-08-28T05:17:13.462Z,4.64
2022-08-28T05:18:13.593Z,4.68
2022-08-28T05:19:13.622Z,6.84
2022-08-28T05:20:13.470Z,4.92
2022-08-28T05:21:14.461Z,6.36
2022-08-28T05:22:14.131Z,4.28
2022-08-28T05:23:13.116Z,9.28
2022-08-28T05:24:13.786Z,7.36
2022-08-28T05:25:13.893Z,10.00
2022-08-28T05:26:12.859Z,14.88
2022-08-28T05:27:14.097Z,7.52
2022-08-28T05:28:13.099Z,3.92
2022-08-28T05:29:13.110Z,5.60
2022-08-28T05:30:13.167Z,6.36
2022-08-28T05:31:13.361Z,0.00
2022-08-28T05:32:13.334Z,2.32
2022-08-28T05:33:13.453Z,5.48
2022-08-28T05:34:13.296Z,4.88
2022-08-28T05:35:13.203Z,1.28
2022-08-28T05:36:13.084Z,3.44
2022-08-28T05:37:17.666Z,7.32
2022-08-28T05:38:13.578Z,11.04
2022-08-28T05:39:13.619Z,8.36
2022-08-28T05:40:13.664Z,6.84
2022-08-28T05:41:13.742Z,9.60
2022-08-28T05:42:14.625Z,8.88
2022-08-28T05:43:13.656Z,6.20
2022-08-28T05:44:13.681Z,4.28
2022-08-28T05:45:13.586Z,6.24
2022-08-28T05:46:13.525Z,3.68
2022-08-28T05:47:13.644Z,4.32
2022-08-28T05:48:14.251Z,9.16
2022-08-28T05:49:13.377Z,4.44
2022-08-28T05:50:13.329Z,1.80
2022-08-28T05:51:13.289Z,0.80
2022-08-28T05:52:13.236Z,1.68
2022-08-28T05:53:13.096Z,2.00
2022-08-28T05:54:13.330Z,5.36
2022-08-28T05:55:13.515Z,8.76
2022-08-28T05:56:13.679Z,12.32
2022-08-28T05:57:13.539Z,8.08
2022-08-28T05:58:13.939Z,8.40
2022-08-28T05:59:13.559Z,6.20
2022-08-28T06:00:13.450Z,7.12
2022-08-28T06:02:13.830Z,10.80
2022-08-28T06:03:14.110Z,3.24
2022-08-28T06:04:13.058Z,5.96
2022-08-28T06:05:13.331Z,7.40
2022-08-28T06:06:14.223Z,6.44
2022-08-28T06:07:13.098Z,8.00
2022-08-28T06:08:13.366Z,12.32
2022-08-28T06:09:13.551Z,10.32
2022-08-28T06:10:13.441Z,10.76
2022-08-28T06:11:13.714Z,6.64
2022-08-28T06:12:18.703Z,9.04
2022-08-28T06:13:16.326Z,6.80
2022-08-28T06:14:13.601Z,10.96
2022-08-28T06:15:13.770Z,8.96
2022-08-28T06:16:14.155Z,2.92
2022-08-28T06:17:13.158Z,9.28
2022-08-28T06:18:13.117Z,6.16
2022-08-28T06:19:14.068Z,10.64
2022-08-28T06:20:13.189Z,8.64
2022-08-28T06:21:13.101Z,5.72
2022-08-28T06:22:13.233Z,5.64
2022-08-28T06:23:15.417Z,8.64
2022-08-28T06:24:13.100Z,7.00
2022-08-28T06:25:13.229Z,4.40
2022-08-28T06:26:13.173Z,6.28
2022-08-28T06:27:18.144Z,4.48
2022-08-28T06:28:13.295Z,7.48
2022-08-28T06:29:13.621Z,5.52
2022-08-28T06:30:13.637Z,6.52
2022-08-28T06:31:23.637Z,5.84
2022-08-28T06:32:13.608Z,5.76
2022-08-28T06:33:14.395Z,8.00
2022-08-28T06:34:13.528Z,8.80
2022-08-28T06:35:13.418Z,11.40
2022-08-28T06:36:13.577Z,7.80
2022-08-28T06:37:14.079Z,10.28
2022-08-28T06:38:13.308Z,15.04
2022-08-28T06:39:13.745Z,13.88
2022-08-28T06:40:13.784Z,10.60
2022-08-28T06:41:13.964Z,9.40
2022-08-28T06:42:12.895Z,6.36
2022-08-28T06:43:12.764Z,7.16
2022-08-28T06:44:14.255Z,12.20
2022-08-28T06:45:13.207Z,12.76
2022-08-28T06:46:13.473Z,10.00
2022-08-28T06:47:13.877Z,4.80
2022-08-28T06:48:13.919Z,4.76
2022-08-28T06:49:13.030Z,2.32
2022-08-28T06:50:13.099Z,8.84
2022-08-28T06:51:13.140Z,9.12
2022-08-28T06:53:12.796Z,1.56
2022-08-28T06:54:17.300Z,8.44
2022-08-28T06:55:13.472Z,19.08
2022-08-28T06:56:13.638Z,15.84
2022-08-28T06:57:13.511Z,11.64
2022-08-28T06:58:13.601Z,15.08
2022-08-28T06:59:13.914Z,7.88
2022-08-28T07:00:13.103Z,4.32
2022-08-28T07:01:14.371Z,14.60
2022-08-28T07:02:13.579Z,17.12
2022-08-28T07:03:13.617Z,9.72
2022-08-28T07:04:13.994Z,12.32
2022-08-28T07:05:14.533Z,15.32
2022-08-28T07:06:14.399Z,8.96
2022-08-28T07:07:31.352Z,8.12
2022-08-28T07:08:13.264Z,14.88
2022-08-28T07:09:13.365Z,8.08
2022-08-28T07:10:13.602Z,23.20
2022-08-28T07:11:13.421Z,20.40
2022-08-28T07:12:13.639Z,23.48
2022-08-28T07:13:13.835Z,21.96
2022-08-28T07:14:13.670Z,16.72
2022-08-28T07:15:13.564Z,13.64
2022-08-28T07:16:14.063Z,17.92
2022-08-28T07:17:13.473Z,8.84
2022-08-28T07:18:13.862Z,11.08
2022-08-28T07:20:28.958Z,30.00
2022-08-28T07:21:13.033Z,22.88
2022-08-28T07:22:13.051Z,12.52
2022-08-28T07:23:14.362Z,10.68
2022-08-28T07:24:18.520Z,10.32
2022-08-28T07:25:13.545Z,22.88
2022-08-28T07:26:13.655Z,29.84
2022-08-28T07:27:18.289Z,25.24
2022-08-28T07:28:13.182Z,20.72
2022-08-28T07:29:13.332Z,14.68
2022-08-28T07:30:13.421Z,20.24
2022-08-28T07:31:13.430Z,24.72
2022-08-28T07:32:13.502Z,26.44
2022-08-28T07:33:13.456Z,24.88
2022-08-28T07:34:14.964Z,11.36
2022-08-28T07:35:12.881Z,8.40
2022-08-28T07:36:15.909Z,8.52
2022-08-28T07:37:15.429Z,13.28
2022-08-28T07:38:13.869Z,8.16
2022-08-28T07:39:14.546Z,18.36
2022-08-28T07:40:13.659Z,22.64
2022-08-28T07:41:13.883Z,19.72
2022-08-28T07:42:14.351Z,20.08
2022-08-28T07:43:15.207Z,19.28
2022-08-28T07:44:14.469Z,17.00
2022-08-28T07:45:13.890Z,21.52
2022-08-28T07:46:13.182Z,6.52
2022-08-28T07:47:14.518Z,2.32
2022-08-28T07:48:14.169Z,13.40
2022-08-28T07:49:13.717Z,21.44
2022-08-28T07:50:13.821Z,16.08
2022-08-28T07:51:14.130Z,13.92
2022-08-28T07:52:13.366Z,13.92
2022-08-28T07:53:13.340Z,6.80
2022-08-28T07:54:15.591Z,9.20
2022-08-28T07:55:28.121Z,6.56
2022-08-28T07:57:13.089Z,10.32
2022-08-28T07:58:13.124Z,16.48
2022-08-28T07:59:16.691Z,23.56
2022-08-28T08:00:13.199Z,28.88
2022-08-28T08:01:13.043Z,28.52
2022-08-28T08:02:12.914Z,22.80
2022-08-28T08:03:13.897Z,32.24
2022-08-28T08:04:12.840Z,28.56
2022-08-28T08:05:14.438Z,28.24
2022-08-28T08:06:13.673Z,21.08
2022-08-28T08:07:14.463Z,23.08
2022-08-28T08:08:13.774Z,32.60
2022-08-28T08:09:13.071Z,25.68
2022-08-28T08:10:13.281Z,24.72
2022-08-28T08:11:13.960Z,22.48
2022-08-28T08:12:13.665Z,23.44
2022-08-28T08:13:13.801Z,25.16
2022-08-28T08:14:13.161Z,21.40
2022-08-28T08:15:12.982Z,13.08
2022-08-28T08:16:12.847Z,14.00
2022-08-28T08:17:13.971Z,16.16
2022-08-28T08:18:14.101Z,12.84
2022-08-28T08:19:13.007Z,18.44
2022-08-28T08:20:13.119Z,27.12
2022-08-28T08:21:13.519Z,23.20
2022-08-28T08:22:13.630Z,22.64
2022-08-28T08:23:13.623Z,17.64
2022-08-28T08:24:17.964Z,26.84
2022-08-28T08:25:13.186Z,39.84
2022-08-28T08:26:13.370Z,30.64
2022-08-28T08:27:13.474Z,19.44
2022-08-28T08:28:13.693Z,3.72
2022-08-28T08:29:13.983Z,8.88
2022-08-28T08:30:12.753Z,24.16
2022-08-28T08:31:13.940Z,20.24
2022-08-28T08:32:12.974Z,16.44
2022-08-28T08:33:12.889Z,15.44
2022-08-28T08:34:13.878Z,24.32
2022-08-28T08:35:13.645Z,21.96
2022-08-28T08:36:13.820Z,20.00
2022-08-28T08:37:13.650Z,19.72
2022-08-28T08:38:13.570Z,17.08
2022-08-28T08:39:13.536Z,12.52
2022-08-28T08:40:12.914Z,10.56
2022-08-28T08:41:12.762Z,18.60
2022-08-28T08:42:13.758Z,19.96
2022-08-28T08:43:13.652Z,18.72
2022-08-28T08:44:13.751Z,25.16
2022-08-28T08:45:13.840Z,12.48
2022-08-28T08:46:14.054Z,15.20
2022-08-28T08:47:14.927Z,20.20
2022-08-28T08:48:13.461Z,8.92
2022-08-28T08:49:13.635Z,0.60
2022-08-28T08:50:13.694Z,9.64
2022-08-28T08:51:13.956Z,13.04
2022-08-28T08:52:12.989Z,17.16
2022-08-28T08:53:13.144Z,18.16
2022-08-28T08:54:13.011Z,20.72
2022-08-28T08:55:12.919Z,4.04
2022-08-28T08:56:12.988Z,13.36
2022-08-28T08:57:12.997Z,11.56
2022-08-28T08:58:13.316Z,3.32
2022-08-28T08:59:13.457Z,13.52
2022-08-28T09:00:15.948Z,13.16
2022-08-28T09:01:13.270Z,13.36
2022-08-28T09:02:14.814Z,11.44
2022-08-28T09:03:13.769Z,6.52
2022-08-28T09:04:15.719Z,14.24
2022-08-28T09:05:13.007Z,11.48
2022-08-28T09:06:15.589Z,6.24
2022-08-28T09:07:14.151Z,4.64
2022-08-28T09:08:15.167Z,4.12
2022-08-28T09:09:13.545Z,3.44
2022-08-28T09:10:13.615Z,8.12
2022-08-28T09:11:13.660Z,14.24
2022-08-28T09:12:14.027Z,15.80
2022-08-28T09:13:13.363Z,10.44
2022-08-28T09:14:13.269Z,12.12
2022-08-28T09:15:13.257Z,21.04
2022-08-28T09:16:13.482Z,11.64
2022-08-28T09:17:13.486Z,9.88
2022-08-28T09:18:13.449Z,13.80
2022-08-28T09:19:15.632Z,15.80
2022-08-28T09:20:13.903Z,14.88
2022-08-28T09:21:13.120Z,26.48
2022-08-28T09:22:13.083Z,26.28
2022-08-28T09:23:14.034Z,16.88
2022-08-28T09:24:13.053Z,6.28
2022-08-28T09:25:13.134Z,11.20
2022-08-28T09:26:13.565Z,14.08
2022-08-28T09:27:14.501Z,15.20
2022-08-28T09:28:13.961Z,12.52
2022-08-28T09:29:13.032Z,6.00
2022-08-28T09:30:12.972Z,8.48
2022-08-28T09:31:13.227Z,14.20
2022-08-28T09:32:13.347Z,13.08
2022-08-28T09:33:13.292Z,13.80
2022-08-28T09:34:13.240Z,8.72
2022-08-28T09:35:13.204Z,6.76
2022-08-28T09:36:13.180Z,10.24
2022-08-28T09:37:13.897Z,6.24
2022-08-28T09:38:13.442Z,13.68
2022-08-28T09:39:13.647Z,12.04
2022-08-28T09:40:13.685Z,10.64
2022-08-28T09:41:15.202Z,12.52
2022-08-28T09:42:13.292Z,8.44
2022-08-28T09:43:13.629Z,8.76
2022-08-28T09:44:13.847Z,14.44
2022-08-28T09:45:14.153Z,6.20
2022-08-28T09:46:14.310Z,5.64
2022-08-28T09:47:13.369Z,12.31
2022-08-28T09:48:13.351Z,23.76
2022-08-28T09:49:13.720Z,15.52
2022-08-28T09:50:13.681Z,11.12
2022-08-28T09:51:13.970Z,14.36
2022-08-28T09:52:13.951Z,15.76
2022-08-28T09:53:12.958Z,3.68
2022-08-28T09:54:12.832Z,4.84
2022-08-28T09:55:13.846Z,2.88
2022-08-28T09:56:13.725Z,5.32
2022-08-28T09:57:13.579Z,1.92
2022-08-28T09:58:13.975Z,8.32
2022-08-28T09:59:13.894Z,15.56
2022-08-28T10:00:13.981Z,21.08
2022-08-28T10:01:12.965Z,17.72
2022-08-28T10:02:13.259Z,3.64
2022-08-28T10:03:14.406Z,1.84
2022-08-28T10:04:13.380Z,2.80
2022-08-28T10:05:14.494Z,4.84
2022-08-28T10:06:15.002Z,4.84
2022-08-28T10:07:12.836Z,0.88
2022-08-28T10:08:14.023Z,1.56
2022-08-28T10:09:13.591Z,0.80
2022-08-28T10:10:13.662Z,3.56
2022-08-28T10:11:13.234Z,9.28
2022-08-28T10:12:13.145Z,4.48
2022-08-28T10:13:13.136Z,7.08
2022-08-28T10:14:13.114Z,9.00
2022-08-28T10:15:13.275Z,1.96
2022-08-28T10:16:13.386Z,3.36
2022-08-28T10:17:13.631Z,3.60
2022-08-28T10:18:15.022Z,3.96
2022-08-28T10:19:13.517Z,6.12
2022-08-28T10:20:13.402Z,6.16
2022-08-28T10:21:13.287Z,0.96
2022-08-28T10:22:15.014Z,1.56
2022-08-28T10:23:17.673Z,2.48
2022-08-28T10:24:14.209Z,2.44
2022-08-28T10:25:13.001Z,2.64
2022-08-28T10:26:14.570Z,4.44
2022-08-28T10:27:13.623Z,7.76
2022-08-28T10:28:13.592Z,6.44
2022-08-28T10:29:13.680Z,11.84
2022-08-28T10:30:15.127Z,12.92
2022-08-28T10:31:13.199Z,10.04
2022-08-28T10:32:13.398Z,6.20
2022-08-28T10:33:15.118Z,9.40
2022-08-28T10:34:13.043Z,7.72
2022-08-28T10:35:14.067Z,4.52
2022-08-28T10:36:34.167Z,4.56
2022-08-28T10:37:14.774Z,4.52
2022-08-28T10:38:13.959Z,11.32
2022-08-28T10:39:13.132Z,11.32
2022-08-28T10:40:12.985Z,8.40
2022-08-28T10:41:12.902Z,6.96
2022-08-28T10:42:13.741Z,10.20
2022-08-28T10:43:13.885Z,10.32
2022-08-28T10:44:13.422Z,7.92
2022-08-28T10:45:13.392Z,5.36
2022-08-28T10:46:15.176Z,1.80
2022-08-28T10:47:14.128Z,4.48
2022-08-28T10:48:13.338Z,5.96
2022-08-28T10:49:29.217Z,9.54
2022-08-28T10:50:14.641Z,18.48
2022-08-28T10:51:13.825Z,4.40
2022-08-28T10:52:14.202Z,5.80
2022-08-28T10:53:14.525Z,6.04
2022-08-28T10:54:13.807Z,5.76
2022-08-28T10:55:13.636Z,7.96
2022-08-28T10:56:14.843Z,17.56
2022-08-28T10:57:13.629Z,7.72
2022-08-28T10:58:24.798Z,5.20
2022-08-28T10:59:13.613Z,3.48
2022-08-28T11:00:21.782Z,8.84
2022-08-28T11:01:15.677Z,11.68
2022-08-28T11:02:15.663Z,7.78
2022-08-28T11:03:33.174Z,7.68
2022-08-28T11:04:14.579Z,9.80
2022-08-28T11:05:18.708Z,15.12
2022-08-28T11:06:15.738Z,11.92
2022-08-28T11:07:13.664Z,11.56
2022-08-28T11:08:16.414Z,10.04
2022-08-28T11:09:15.194Z,12.96
2022-08-28T11:10:20.925Z,12.56
2022-08-28T11:11:14.237Z,6.16
2022-08-28T11:12:15.659Z,3.12
2022-08-28T11:13:18.464Z,7.92
2022-08-28T11:14:14.679Z,1.68
2022-08-28T11:15:14.769Z,0.56
2022-08-28T11:16:15.927Z,5.88
2022-08-28T11:17:16.504Z,6.72
2022-08-28T11:18:17.714Z,4.08
2022-08-28T11:19:16.902Z,4.76
2022-08-28T11:20:16.857Z,9.40
2022-08-28T11:21:17.249Z,2.84
2022-08-28T11:22:16.447Z,9.00
2022-08-28T11:23:17.297Z,9.72
2022-08-28T11:24:17.585Z,6.60
2022-08-28T11:25:16.019Z,5.96
2022-08-28T11:26:16.970Z,1.12
2022-08-28T11:27:17.776Z,7.68
2022-08-28T11:28:14.323Z,2.60
2022-08-28T11:29:17.848Z,7.08
2022-08-28T11:30:14.579Z,10.28
2022-08-28T11:31:19.106Z,13.76
2022-08-28T11:32:17.473Z,16.60
2022-08-28T11:33:18.369Z,3.20
2022-08-28T11:34:17.174Z,3.72
2022-08-28T11:35:14.685Z,4.72
2022-08-28T11:36:16.478Z,5.96
2022-08-28T11:37:18.264Z,14.96
2022-08-28T11:38:18.418Z,15.72
2022-08-28T11:39:13.009Z,6.52
2022-08-28T11:40:14.771Z,6.24
2022-08-28T11:41:15.769Z,7.68
2022-08-28T11:42:17.109Z,4.40
2022-08-28T11:43:17.160Z,7.44
2022-08-28T11:44:16.204Z,13.00
2022-08-28T11:45:16.252Z,8.76
2022-08-28T11:46:22.187Z,6.16
2022-08-28T11:47:16.326Z,1.76
2022-08-28T11:48:16.552Z,4.24
2022-08-28T11:49:14.474Z,5.52
2022-08-28T11:50:14.884Z,9.24
2022-08-28T11:51:16.441Z,7.04
2022-08-28T11:52:13.469Z,14.28
2022-08-28T11:53:20.790Z,10.76
2022-08-28T11:54:16.288Z,8.68
2022-08-28T11:55:13.088Z,12.40
2022-08-28T11:56:21.777Z,9.64
2022-08-28T11:57:14.188Z,4.12
2022-08-28T11:58:19.399Z,5.88
2022-08-28T11:59:19.395Z,11.48
2022-08-28T12:00:17.539Z,9.24
2022-08-28T12:01:14.478Z,6.04
2022-08-28T12:02:16.885Z,2.00
2022-08-28T12:03:16.262Z,8.44
2022-08-28T12:04:15.507Z,12.60
2022-08-28T12:05:16.479Z,4.20
2022-08-28T12:06:17.474Z,5.88
2022-08-28T12:07:17.883Z,7.84
2022-08-28T12:08:16.756Z,7.80
2022-08-28T12:09:17.312Z,5.48
2022-08-28T12:10:16.104Z,7.52
2022-08-28T12:11:19.880Z,7.36
2022-08-28T12:12:17.068Z,9.96
2022-08-28T12:13:14.885Z,19.84
2022-08-28T12:14:16.340Z,12.16
2022-08-28T12:15:19.288Z,7.32
2022-08-28T12:16:17.634Z,3.36
2022-08-28T12:17:15.067Z,7.16
2022-08-28T12:18:17.848Z,5.92
2022-08-28T12:19:17.415Z,8.96
2022-08-28T12:20:16.441Z,9.88
2022-08-28T12:21:16.930Z,5.36
2022-08-28T12:22:18.609Z,8.48
2022-08-28T12:23:16.548Z,13.16
2022-08-28T12:24:18.063Z,10.80
2022-08-28T12:25:16.301Z,15.28
2022-08-28T12:26:18.644Z,21.80
2022-08-28T12:27:18.221Z,22.44
2022-08-28T12:28:17.819Z,10.08
2022-08-28T12:29:18.643Z,7.72
2022-08-28T12:30:19.683Z,14.80
2022-08-28T12:31:14.206Z,22.80
2022-08-28T12:32:16.876Z,37.48
2022-08-28T12:33:16.876Z,33.20
2022-08-28T12:34:13.039Z,18.60
2022-08-28T12:37:13.321Z,30.14
2022-08-28T12:38:15.605Z,38.92
2022-08-28T12:39:16.871Z,12.92
2022-08-28T12:40:17.466Z,3.28
2022-08-28T12:41:15.492Z,4.40
2022-08-28T12:42:18.578Z,6.32
2022-08-28T12:43:18.425Z,4.52
2022-08-28T12:44:16.644Z,5.08
2022-08-28T12:45:19.421Z,15.24
2022-08-28T12:46:18.885Z,6.44
2022-08-28T12:47:20.855Z,5.56
2022-08-28T12:48:18.375Z,3.92
2022-08-28T12:49:18.817Z,3.08
2022-08-28T12:50:17.234Z,4.16
2022-08-28T12:51:19.427Z,12.12
2022-08-28T12:52:17.505Z,10.36
2022-08-28T12:53:17.364Z,21.52
2022-08-28T12:54:17.662Z,8.60
2022-08-28T12:55:16.300Z,11.56
2022-08-28T12:56:16.489Z,6.20
2022-08-28T12:57:18.586Z,3.68
2022-08-28T12:58:19.695Z,13.64
2022-08-28T12:59:16.775Z,14.56
2022-08-28T13:00:21.394Z,5.72
2022-08-28T13:01:18.877Z,15.64
2022-08-28T13:02:18.797Z,14.44
2022-08-28T13:03:18.268Z,26.68
2022-08-28T13:04:19.106Z,12.32
2022-08-28T13:05:18.633Z,15.20
2022-08-28T13:06:16.444Z,24.44
2022-08-28T13:07:18.944Z,20.36
2022-08-28T13:08:17.562Z,25.00
2022-08-28T13:09:17.700Z,12.60
2022-08-28T13:10:17.481Z,14.56
2022-08-28T13:11:17.456Z,11.68
2022-08-28T13:12:15.086Z,7.20
2022-08-28T13:13:15.503Z,16.32
2022-08-28T13:14:16.249Z,19.52
2022-08-28T13:15:24.270Z,10.96